createdAt,value
2019-06-07T00:00:40.172Z,6.47
2019-06-07T00:03:15.785Z,6.87
2019-06-07T00:05:43.570Z,7.07
2019-06-07T00:08:24.965Z,7.27
2019-06-07T00:10:49.920Z,7.50
2019-06-07T00:13:21.672Z,7.53
2019-06-07T00:15:53.398Z,8.37
2019-06-07T00:18:26.431Z,8.53
2019-06-07T00:20:58.302Z,9.27
2019-06-07T00:23:30.120Z,8.80
2019-06-07T00:26:01.972Z,8.93
2019-06-07T00:28:33.796Z,8.33
2019-06-07T00:31:05.769Z,8.87
2019-06-07T00:33:37.562Z,8.97
2019-06-07T00:36:10.085Z,8.10
2019-06-07T00:38:43.103Z,8.80
2019-06-07T00:41:15.710Z,8.33
2019-06-07T00:43:48.298Z,7.73
2019-06-07T00:46:21.653Z,8.93
2019-06-07T00:48:53.428Z,8.73
2019-06-07T00:51:25.229Z,8.70
2019-06-07T00:53:57.070Z,9.10
2019-06-07T00:56:28.870Z,7.83
2019-06-07T00:59:11.152Z,7.70
2019-06-07T01:01:34.281Z,9.10
2019-06-07T01:04:06.041Z,8.57
2019-06-07T01:06:37.777Z,8.50
2019-06-07T01:09:09.911Z,9.50
2019-06-07T01:11:41.781Z,7.80
2019-06-07T01:14:14.479Z,8.27
2019-06-07T01:16:57.266Z,8.20
2019-06-07T01:19:22.339Z,8.07
2019-06-07T01:21:54.587Z,7.97
2019-06-07T01:24:28.054Z,9.00
2019-06-07T01:27:00.205Z,7.97
2019-06-07T01:29:33.077Z,9.73
2019-06-07T01:32:04.807Z,8.10
2019-06-07T01:34:36.757Z,8.17
2019-06-07T01:37:08.477Z,7.93
2019-06-07T01:39:40.221Z,8.43
2019-06-07T01:42:11.937Z,8.23
2019-06-07T01:44:43.770Z,8.07
2019-06-07T01:47:15.493Z,9.33
2019-06-07T01:49:47.305Z,8.80
2019-06-07T01:52:19.603Z,8.47
2019-06-07T01:54:58.641Z,7.57
2019-06-07T01:57:43.216Z,8.43
2019-06-07T02:00:00.947Z,7.13
2019-06-07T02:02:32.759Z,8.30
2019-06-07T02:05:05.041Z,8.30
2019-06-07T02:07:36.858Z,8.97
2019-06-07T02:10:09.808Z,8.77
2019-06-07T02:12:43.521Z,8.50
2019-06-07T02:15:15.251Z,8.57
2019-06-07T02:17:47.233Z,8.57
2019-06-07T02:20:20.328Z,8.30
2019-06-07T02:22:52.924Z,8.67
2019-06-07T02:25:48.717Z,8.73
2019-06-07T02:28:26.081Z,9.17
2019-06-07T02:30:47.104Z,7.73
2019-06-07T02:33:05.039Z,8.30
2019-06-07T02:35:40.233Z,8.73
2019-06-07T02:38:10.235Z,8.30
2019-06-07T02:40:42.110Z,7.90
2019-06-07T02:43:13.883Z,8.70
2019-06-07T02:45:45.616Z,8.40
2019-06-07T02:48:17.314Z,8.63
2019-06-07T02:50:49.582Z,9.07
2019-06-07T02:53:21.303Z,8.30
2019-06-07T02:56:35.325Z,8.30
2019-06-07T02:58:32.499Z,8.10
2019-06-07T03:01:07.729Z,8.70
2019-06-07T03:03:36.779Z,8.20
2019-06-07T03:06:06.547Z,7.53
2019-06-07T03:08:41.549Z,8.80
2019-06-07T03:11:15.638Z,8.73
2019-06-07T03:13:49.853Z,9.57
2019-06-07T03:16:31.299Z,8.10
2019-06-07T03:19:13.274Z,8.67
2019-06-07T03:21:45.941Z,8.70
2019-06-07T03:24:17.659Z,8.20
2019-06-07T03:29:22.753Z,8.30
2019-06-07T03:31:54.526Z,8.50
2019-06-07T03:34:28.890Z,7.77
2019-06-07T03:36:59.661Z,8.10
2019-06-07T03:39:33.554Z,8.27
2019-06-07T03:42:06.641Z,8.80
2019-06-07T03:44:41.586Z,8.30
2019-06-07T03:47:11.976Z,8.23
2019-06-07T03:49:45.145Z,8.30
2019-06-07T03:52:17.299Z,7.80
2019-06-07T03:54:49.139Z,8.60
2019-06-07T03:57:20.839Z,8.63
2019-06-07T03:59:52.582Z,8.60
2019-06-07T04:02:24.329Z,8.60
2019-06-07T04:04:56.193Z,8.53
2019-06-07T04:07:29.392Z,8.37
2019-06-07T04:10:01.568Z,8.10
2019-06-07T04:12:38.602Z,9.03
2019-06-07T04:15:06.935Z,7.83
2019-06-07T04:17:44.550Z,8.47
2019-06-07T04:20:12.496Z,8.30
2019-06-07T04:22:44.278Z,8.80
2019-06-07T04:25:16.104Z,8.90
2019-06-07T04:27:47.926Z,8.37
2019-06-07T04:30:41.955Z,8.03
2019-06-07T04:33:15.331Z,8.00
2019-06-07T04:35:47.103Z,7.97
2019-06-07T04:38:18.835Z,8.90
2019-06-07T04:40:52.225Z,8.83
2019-06-07T04:43:33.520Z,9.63
2019-06-07T04:46:05.761Z,9.40
2019-06-07T04:48:43.189Z,8.67
2019-06-07T04:51:15.592Z,8.10
2019-06-07T04:53:47.421Z,8.57
2019-06-07T04:56:19.233Z,8.37
2019-06-07T04:58:51.051Z,8.47
2019-06-07T05:01:27.788Z,8.73
2019-06-07T05:03:56.320Z,8.23
2019-06-07T05:06:29.928Z,7.30
2019-06-07T05:09:01.830Z,7.53
2019-06-07T05:11:36.452Z,7.80
2019-06-07T05:14:08.569Z,7.63
2019-06-07T05:16:52.281Z,7.77
2019-06-07T05:19:24.069Z,8.93
2019-06-07T05:22:04.142Z,8.57
2019-06-07T05:24:30.729Z,8.83
2019-06-07T05:27:02.925Z,10.10
2019-06-07T05:29:36.794Z,10.33
2019-06-07T05:32:08.681Z,10.50
2019-06-07T05:34:46.863Z,10.77
2019-06-07T05:37:15.277Z,10.77
2019-06-07T05:39:47.609Z,10.23
2019-06-07T05:42:19.452Z,10.37
2019-06-07T05:44:51.445Z,9.70
2019-06-07T05:47:23.272Z,10.57
2019-06-07T05:49:55.066Z,11.00
2019-06-07T05:52:26.955Z,10.80
2019-06-07T05:54:58.757Z,10.77
2019-06-07T05:57:30.565Z,11.80
2019-06-07T06:00:02.411Z,11.83
2019-06-07T06:02:53.014Z,11.73
2019-06-07T06:05:07.865Z,11.80
2019-06-07T06:07:45.212Z,12.10
2019-06-07T06:10:13.489Z,11.27
2019-06-07T06:12:51.519Z,11.20
2019-06-07T06:15:18.975Z,10.43
2019-06-07T06:17:53.846Z,9.80
2019-06-07T06:20:24.198Z,9.33
2019-06-07T06:22:57.295Z,9.53
2019-06-07T06:25:32.310Z,8.43
2019-06-07T06:28:11.690Z,7.87
2019-06-07T06:30:36.006Z,7.60
2019-06-07T06:33:07.715Z,9.60
2019-06-07T06:35:39.865Z,8.33
2019-06-07T06:38:11.991Z,9.00
2019-06-07T06:40:47.057Z,7.80
2019-06-07T06:43:17.116Z,8.27
2019-06-07T06:45:50.661Z,7.43
2019-06-07T06:48:22.381Z,5.87
2019-06-07T06:50:54.088Z,5.07
2019-06-07T06:53:25.924Z,5.10
2019-06-07T06:55:57.748Z,5.00
2019-06-07T06:58:29.588Z,4.50
2019-06-07T07:01:06.531Z,3.53
2019-06-07T07:04:07.244Z,3.07
2019-06-07T07:06:25.312Z,2.80
2019-06-07T07:08:44.264Z,2.90
2019-06-07T07:11:16.784Z,2.73
2019-06-07T07:13:53.485Z,3.27
2019-06-07T07:16:22.112Z,3.03
2019-06-07T07:18:54.652Z,2.83
2019-06-07T07:21:26.949Z,2.97
2019-06-07T07:24:20.135Z,3.30
2019-06-07T07:26:32.219Z,2.90
2019-06-07T07:29:15.222Z,2.93
2019-06-07T07:31:50.840Z,2.80
2019-06-07T07:34:33.965Z,2.57
2019-06-07T07:36:59.394Z,2.37
2019-06-07T07:39:27.385Z,3.67
2019-06-07T07:42:17.410Z,2.27
2019-06-07T07:44:32.642Z,1.80
2019-06-07T07:47:04.468Z,2.10
2019-06-07T07:49:36.224Z,2.33
2019-06-07T07:52:07.944Z,2.30
2019-06-07T07:54:39.576Z,2.33
2019-06-07T07:57:11.288Z,2.03
2019-06-07T08:00:00.450Z,2.03
2019-06-07T08:02:16.405Z,2.27
2019-06-07T08:07:22.884Z,1.67
2019-06-07T08:09:57.724Z,2.17
2019-06-07T08:12:27.980Z,2.03
2019-06-07T08:15:03.295Z,2.33
2019-06-07T08:17:33.556Z,4.40
2019-06-07T08:20:05.479Z,5.30
2019-06-07T08:22:37.388Z,4.20
2019-06-07T08:25:11.251Z,3.60
2019-06-07T08:27:42.972Z,3.23
2019-06-07T08:30:47.040Z,3.37
2019-06-07T08:32:54.939Z,2.87
2019-06-07T08:36:03.054Z,3.00
2019-06-07T08:38:21.483Z,3.70
2019-06-07T08:40:29.676Z,3.57
2019-06-07T08:43:15.495Z,3.83
2019-06-07T08:45:34.935Z,4.57
2019-06-07T08:48:26.454Z,4.53
2019-06-07T08:50:40.334Z,4.93
2019-06-07T08:53:12.616Z,5.10
2019-06-07T08:55:44.652Z,5.20
2019-06-07T08:58:16.376Z,4.37
2019-06-07T09:00:48.223Z,4.70
2019-06-07T09:03:20.251Z,4.60
2019-06-07T09:05:53.673Z,4.50
2019-06-07T09:08:37.026Z,4.07
2019-06-07T09:11:11.369Z,4.60
2019-06-07T09:13:42.360Z,4.50
2019-06-07T09:16:14.114Z,4.40
2019-06-07T09:18:45.887Z,4.17
2019-06-07T09:21:17.664Z,4.13
2019-06-07T09:23:49.386Z,3.80
2019-06-07T09:26:21.209Z,4.57
2019-06-07T09:28:57.652Z,4.50
2019-06-07T09:31:51.360Z,4.13
2019-06-07T09:34:08.003Z,4.07
2019-06-07T09:36:35.931Z,3.80
2019-06-07T09:39:12.256Z,3.83
2019-06-07T09:41:49.549Z,4.20
2019-06-07T09:44:28.212Z,3.37
2019-06-07T09:47:20.656Z,3.10
2019-06-07T09:49:35.154Z,2.95
2019-06-07T09:52:10.861Z,3.25
2019-06-07T09:57:17.464Z,2.65
2019-06-07T09:59:49.183Z,2.90
2019-06-07T10:02:21.563Z,3.00
2019-06-07T10:04:53.910Z,2.90
2019-06-07T10:07:31.814Z,2.60
2019-06-07T10:12:34.563Z,2.90
2019-06-07T10:15:08.937Z,3.05
2019-06-07T10:17:41.722Z,3.05
2019-06-07T10:20:14.726Z,2.67
2019-06-07T10:22:47.022Z,2.80
2019-06-07T10:25:19.301Z,2.98
2019-06-07T10:27:51.603Z,3.17
2019-06-07T10:30:23.914Z,2.95
2019-06-07T10:32:56.201Z,3.17
2019-06-07T10:35:29.864Z,2.70
2019-06-07T10:38:02.518Z,2.42
2019-06-07T10:40:35.236Z,3.02
2019-06-07T10:43:07.543Z,2.70
2019-06-07T10:45:39.894Z,3.40
2019-06-07T10:48:12.152Z,3.30
2019-06-07T10:50:44.502Z,2.65
2019-06-07T10:53:16.851Z,3.30
2019-06-07T10:55:49.221Z,3.50
2019-06-07T10:58:22.010Z,3.12
2019-06-07T11:00:54.490Z,3.05
2019-06-07T11:03:26.858Z,3.33
2019-06-07T11:05:59.229Z,3.08
2019-06-07T11:08:31.703Z,3.08
2019-06-07T11:11:04.153Z,3.17
2019-06-07T11:13:36.449Z,3.20
2019-06-07T11:16:08.841Z,3.27
2019-06-07T11:18:41.199Z,3.00
2019-06-07T11:21:14.318Z,3.55
2019-06-07T11:23:47.077Z,3.35
2019-06-07T11:26:19.341Z,3.00
2019-06-07T11:28:52.635Z,4.75
2019-06-07T11:31:24.992Z,3.92
2019-06-07T11:33:57.310Z,3.85
2019-06-07T11:36:29.779Z,3.12
2019-06-07T11:39:02.110Z,3.45
2019-06-07T11:41:35.717Z,3.83
2019-06-07T11:44:08.741Z,3.58
2019-06-07T11:46:42.568Z,3.65
2019-06-07T11:49:19.896Z,4.20
2019-06-07T11:51:48.865Z,4.03
2019-06-07T11:54:21.175Z,5.40
2019-06-07T11:56:53.481Z,5.78
2019-06-07T11:59:27.157Z,7.05
2019-06-07T12:01:59.560Z,4.20
2019-06-07T12:04:34.717Z,3.98
2019-06-07T12:07:06.073Z,4.33
2019-06-07T12:09:38.450Z,3.98
2019-06-07T12:12:10.827Z,4.05
2019-06-07T12:14:43.129Z,4.12
2019-06-07T12:17:15.520Z,3.47
2019-06-07T12:19:47.807Z,3.58
2019-06-07T12:22:20.198Z,4.40
2019-06-07T12:24:52.506Z,4.03
2019-06-07T12:27:24.878Z,4.70
2019-06-07T12:29:57.261Z,4.15
2019-06-07T12:32:29.542Z,4.72
2019-06-07T12:35:01.898Z,5.28
2019-06-07T12:37:43.719Z,5.30
2019-06-07T12:40:09.983Z,6.28
2019-06-07T12:42:42.738Z,6.97
2019-06-07T12:45:32.373Z,4.83
2019-06-07T12:47:50.611Z,4.20
2019-06-07T12:50:28.608Z,3.87
2019-06-07T12:52:57.741Z,3.85
2019-06-07T12:55:30.042Z,3.90
2019-06-07T12:58:02.367Z,4.28
2019-06-07T13:00:34.791Z,3.95
2019-06-07T13:03:07.201Z,4.10
2019-06-07T13:05:39.518Z,3.85
2019-06-07T13:08:11.918Z,4.03
2019-06-07T13:10:44.303Z,3.58
2019-06-07T13:13:17.854Z,3.70
2019-06-07T13:15:50.540Z,3.50
2019-06-07T13:18:24.995Z,4.25
2019-06-07T13:20:56.912Z,4.08
2019-06-07T13:23:29.239Z,4.00
2019-06-07T13:26:01.618Z,3.62
2019-06-07T13:28:34.145Z,3.40
2019-06-07T13:31:06.771Z,3.37
2019-06-07T13:33:39.181Z,3.62
2019-06-07T13:36:11.499Z,3.40
2019-06-07T13:38:43.888Z,2.87
2019-06-07T13:41:30.182Z,3.15
2019-06-07T13:43:51.682Z,3.40
2019-06-07T13:46:25.379Z,2.80
2019-06-07T13:48:57.906Z,3.10
2019-06-07T13:51:33.274Z,3.60
2019-06-07T13:54:04.276Z,3.42
2019-06-07T13:56:36.573Z,3.05
2019-06-07T13:59:08.904Z,2.70
2019-06-07T14:01:41.274Z,3.08
2019-06-07T14:04:13.724Z,3.10
2019-06-07T14:06:46.800Z,3.17
2019-06-07T14:09:19.283Z,3.40
2019-06-07T14:11:51.592Z,3.12
2019-06-07T14:14:25.114Z,3.98
2019-06-07T14:16:57.762Z,3.30
2019-06-07T14:19:30.784Z,3.10
2019-06-07T14:22:03.886Z,3.17
2019-06-07T14:24:36.520Z,3.72
2019-06-07T14:27:08.909Z,4.03
2019-06-07T14:29:41.210Z,3.40
2019-06-07T14:32:13.774Z,3.33
2019-06-07T14:34:46.226Z,8.20
2019-06-07T14:37:18.580Z,8.70
2019-06-07T14:39:50.920Z,10.18
2019-06-07T14:42:23.463Z,4.28
2019-06-07T14:44:55.904Z,3.70
2019-06-07T14:47:29.872Z,3.40
2019-06-07T14:50:02.505Z,3.33
2019-06-07T14:52:35.200Z,4.40
2019-06-07T14:55:09.105Z,4.67
2019-06-07T14:57:41.676Z,4.35
2019-06-07T15:00:16.262Z,3.70
2019-06-07T15:02:48.556Z,4.08
2019-06-07T15:05:24.862Z,5.40
2019-06-07T15:07:57.261Z,5.55
2019-06-07T15:10:31.769Z,6.90
2019-06-07T15:13:05.285Z,13.08
2019-06-07T15:15:38.918Z,5.97
2019-06-07T15:18:11.609Z,6.12
2019-06-07T15:20:43.908Z,4.62
2019-06-07T15:23:16.227Z,5.12
2019-06-07T15:25:48.532Z,9.70
2019-06-07T15:28:20.938Z,40.33
2019-06-07T15:30:53.314Z,14.55
2019-06-07T15:33:25.660Z,13.32
2019-06-07T15:35:57.953Z,7.37
2019-06-07T15:38:31.046Z,4.25
2019-06-07T15:41:03.815Z,4.40
2019-06-07T15:43:39.298Z,11.57
2019-06-07T15:46:12.053Z,9.33
2019-06-07T15:48:44.401Z,4.37
2019-06-07T15:51:16.814Z,7.90
2019-06-07T15:53:52.484Z,38.28
2019-06-07T15:56:24.953Z,10.43
2019-06-07T15:58:57.268Z,30.52
2019-06-07T16:01:31.099Z,18.50
2019-06-07T16:04:03.755Z,10.05
2019-06-07T16:06:36.329Z,26.68
2019-06-07T16:09:10.485Z,16.67
2019-06-07T16:11:43.667Z,10.55
2019-06-07T16:14:17.057Z,5.65
2019-06-07T16:16:49.602Z,4.20
2019-06-07T16:19:22.039Z,4.62
2019-06-07T16:21:54.930Z,4.42
2019-06-07T16:24:27.256Z,4.47
2019-06-07T16:26:59.637Z,3.98
2019-06-07T16:29:32.088Z,4.35
2019-06-07T16:32:04.502Z,6.62
2019-06-07T16:34:38.026Z,6.53
2019-06-07T16:37:13.448Z,5.08
2019-06-07T16:39:46.365Z,4.60
2019-06-07T16:42:19.074Z,4.10
2019-06-07T16:44:51.515Z,10.75
2019-06-07T16:47:23.789Z,10.35
2019-06-07T16:49:56.155Z,9.68
2019-06-07T16:52:28.749Z,7.97
2019-06-07T16:55:01.457Z,9.28
2019-06-07T16:57:34.247Z,8.98
2019-06-07T17:00:08.140Z,19.95
2019-06-07T17:02:40.608Z,12.58
2019-06-07T17:05:13.778Z,8.00
2019-06-07T17:07:46.990Z,7.58
2019-06-07T17:10:20.442Z,7.25
2019-06-07T17:12:53.858Z,6.00
2019-06-07T17:15:29.736Z,4.10
2019-06-07T17:18:02.171Z,3.75
2019-06-07T17:20:34.537Z,4.20
2019-06-07T17:23:06.857Z,3.90
2019-06-07T17:25:39.463Z,3.50
2019-06-07T17:28:12.378Z,3.47
2019-06-07T17:30:46.012Z,3.42
2019-06-07T17:33:19.637Z,3.85
2019-06-07T17:35:51.998Z,3.85
2019-06-07T17:38:25.734Z,7.40
2019-06-07T17:40:58.113Z,10.98
2019-06-07T17:43:30.428Z,14.70
2019-06-07T17:46:05.175Z,5.60
2019-06-07T17:48:37.885Z,4.00
2019-06-07T17:51:10.284Z,4.20
2019-06-07T17:53:43.854Z,3.85
2019-06-07T17:56:16.527Z,4.10
2019-06-07T17:58:50.454Z,4.58
2019-06-07T18:01:23.736Z,4.30
2019-06-07T18:03:56.531Z,4.03
2019-06-07T18:06:30.843Z,3.95
2019-06-07T18:09:05.373Z,7.55
2019-06-07T18:11:38.341Z,6.28
2019-06-07T18:14:11.348Z,4.50
2019-06-07T18:16:46.422Z,4.17
2019-06-07T18:19:19.279Z,3.85
2019-06-07T18:21:56.042Z,4.00
2019-06-07T18:24:25.783Z,4.08
2019-06-07T18:26:58.923Z,3.95
2019-06-07T18:29:32.805Z,4.35
2019-06-07T18:32:05.165Z,4.12
2019-06-07T18:34:37.517Z,4.25
2019-06-07T18:37:09.895Z,4.47
2019-06-07T18:39:42.267Z,4.50
2019-06-07T18:42:14.606Z,4.17
2019-06-07T18:44:47.173Z,4.50
2019-06-07T18:47:19.517Z,4.45
2019-06-07T18:49:53.498Z,4.60
2019-06-07T18:52:32.234Z,4.25
2019-06-07T18:55:06.733Z,4.35
2019-06-07T18:57:39.153Z,4.58
2019-06-07T19:00:12.767Z,4.12
2019-06-07T19:02:45.365Z,4.12
2019-06-07T19:05:18.313Z,4.60
2019-06-07T19:07:50.895Z,4.62
2019-06-07T19:10:23.591Z,4.17
2019-06-07T19:12:57.296Z,4.20
2019-06-07T19:15:30.442Z,4.45
2019-06-07T19:18:03.582Z,4.35
2019-06-07T19:20:36.168Z,4.75
2019-06-07T19:23:08.665Z,4.60
2019-06-07T19:25:42.774Z,4.70
2019-06-07T19:28:15.224Z,4.95
2019-06-07T19:30:47.506Z,4.50
2019-06-07T19:33:20.103Z,4.78
2019-06-07T19:35:53.541Z,4.80
2019-06-07T19:38:27.826Z,5.22
2019-06-07T19:41:17.613Z,4.67
2019-06-07T19:43:34.191Z,4.70
2019-06-07T19:46:06.512Z,5.03
2019-06-07T19:48:38.867Z,5.03
2019-06-07T19:51:11.546Z,4.87
2019-06-07T19:53:43.938Z,5.58
2019-06-07T19:56:16.268Z,5.22
2019-06-07T19:58:48.652Z,5.70
2019-06-07T20:01:20.984Z,6.28
2019-06-07T20:03:53.824Z,6.05
2019-06-07T20:06:26.632Z,6.60
2019-06-07T20:08:58.929Z,6.92
2019-06-07T20:11:31.390Z,6.35
2019-06-07T20:14:05.010Z,5.70
2019-06-07T20:16:39.889Z,7.00
2019-06-07T20:19:12.272Z,6.85
2019-06-07T20:21:44.611Z,7.37
2019-06-07T20:24:26.571Z,5.95
2019-06-07T20:26:51.120Z,6.22
2019-06-07T20:29:26.278Z,6.40
2019-06-07T20:31:58.249Z,6.22
2019-06-07T20:34:30.888Z,6.97
2019-06-07T20:37:05.448Z,6.70
2019-06-07T20:39:37.382Z,6.17
2019-06-07T20:42:09.856Z,6.05
2019-06-07T20:44:42.243Z,6.67
2019-06-07T20:47:14.711Z,7.03
2019-06-07T20:49:47.335Z,6.20
2019-06-07T20:52:19.698Z,7.00
2019-06-07T20:54:52.582Z,7.10
2019-06-07T20:57:25.087Z,7.80
2019-06-07T20:59:58.710Z,6.53
2019-06-07T21:02:31.392Z,7.62
2019-06-07T21:05:05.187Z,6.45
2019-06-07T21:07:37.896Z,8.43
2019-06-07T21:10:11.330Z,7.42
2019-06-07T21:12:43.966Z,8.73
2019-06-07T21:15:16.995Z,10.00
2019-06-07T21:17:49.370Z,9.08
2019-06-07T21:20:23.531Z,8.43
2019-06-07T21:22:55.860Z,8.30
2019-06-07T21:25:28.184Z,9.15
2019-06-07T21:28:00.944Z,9.88
2019-06-07T21:30:33.712Z,10.20
2019-06-07T21:33:07.366Z,8.70
2019-06-07T21:35:40.093Z,9.00
2019-06-07T21:38:12.870Z,8.20
2019-06-07T21:40:45.485Z,8.35
2019-06-07T21:43:17.856Z,8.23
2019-06-07T21:46:04.458Z,7.65
2019-06-07T21:48:24.305Z,7.80
2019-06-07T21:50:56.611Z,9.35
2019-06-07T21:53:28.944Z,7.53
2019-06-07T21:56:02.741Z,8.55
2019-06-07T21:58:35.328Z,7.65
2019-06-07T22:01:14.552Z,7.60
2019-06-07T22:03:48.902Z,8.00
2019-06-07T22:06:21.274Z,8.20
2019-06-07T22:08:53.638Z,9.55
2019-06-07T22:11:25.602Z,9.03
2019-06-07T22:13:57.944Z,8.33
2019-06-07T22:16:30.370Z,8.38
2019-06-07T22:19:02.191Z,8.48
2019-06-07T22:21:34.014Z,11.47
2019-06-07T22:24:06.850Z,13.53
2019-06-07T22:26:39.075Z,11.57
2019-06-07T22:29:10.856Z,10.23
2019-06-07T22:31:42.622Z,10.30
2019-06-07T22:34:15.083Z,10.37
2019-06-07T22:36:47.465Z,10.40
2019-06-07T22:39:19.186Z,9.03
2019-06-07T22:41:51.230Z,9.27
2019-06-07T22:44:23.184Z,12.20
2019-06-07T22:46:55.080Z,11.70
2019-06-07T22:49:26.956Z,11.37
2019-06-07T22:52:08.358Z,10.90
2019-06-07T22:54:32.281Z,9.73
2019-06-07T22:57:14.093Z,10.50
2019-06-07T22:59:45.977Z,10.80
2019-06-07T23:02:18.812Z,10.67
2019-06-07T23:04:51.252Z,10.33
2019-06-07T23:07:22.997Z,9.40
2019-06-07T23:09:54.763Z,9.50
2019-06-07T23:12:26.513Z,9.37
2019-06-07T23:14:58.301Z,9.70
2019-06-07T23:17:30.054Z,10.83
2019-06-07T23:20:01.920Z,10.80
2019-06-07T23:22:33.705Z,9.43
2019-06-07T23:25:05.983Z,10.30
2019-06-07T23:27:37.721Z,10.57
2019-06-07T23:30:10.810Z,10.90
2019-06-07T23:32:42.706Z,9.00
2019-06-07T23:35:15.025Z,10.13
2019-06-07T23:37:46.753Z,10.33
2019-06-07T23:40:19.470Z,9.33
2019-06-07T23:42:51.427Z,10.53
2019-06-07T23:45:23.212Z,9.33
2019-06-07T23:47:54.999Z,9.70
2019-06-07T23:50:26.722Z,9.40
2019-06-07T23:52:58.536Z,11.80
2019-06-07T23:55:30.267Z,10.80
2019-06-07T23:58:02.056Z,13.30
